Time;durP1;ratioP1;P1;durP2;ratioP2;P2;SDS_P1;SDS_P2;PMS_P1;PMS_P2;Temp;Humidity;BMP_temperature;BMP_pressure;BME280_temperature;BME280_humidity;BME280_pressure;Samples;Min_cycle;Max_cycle;Signal;HPM_P1;HPM_P2
2021/11/29 00:00:57;;;;;;;14.50;13.20;;;1.90;84.30;;;;;;5012375;28;20998;-84
2021/11/29 00:03:23;;;;;;;12.57;11.37;;;1.90;85.50;;;;;;5012505;28;20409;-85
2021/11/29 00:05:48;;;;;;;14.10;12.80;;;1.90;85.10;;;;;;5012486;28;20435;-85
2021/11/29 00:08:14;;;;;;;13.90;12.60;;;2.00;87.10;;;;;;5012186;28;20223;-84
2021/11/29 00:10:41;;;;;;;15.47;13.97;;;2.00;87.00;;;;;;5012158;28;20178;-84
2021/11/29 00:13:07;;;;;;;15.23;13.87;;;2.00;88.00;;;;;;5011673;28;20408;-84
2021/11/29 00:15:33;;;;;;;17.47;15.87;;;2.10;87.00;;;;;;5011561;28;20416;-82
2021/11/29 00:18:01;;;;;;;17.13;15.53;;;2.20;85.60;;;;;;5011393;28;21046;-84
2021/11/29 00:20:27;;;;;;;15.90;14.50;;;2.20;84.60;;;;;;5010849;28;20230;-81
2021/11/29 00:22:53;;;;;;;17.33;15.60;;;2.20;85.30;;;;;;5011489;28;20415;-83
2021/11/29 00:25:19;;;;;;;17.50;15.63;;;2.20;85.40;;;;;;5011120;28;20183;-82
2021/11/29 00:27:45;;;;;;;17.87;16.07;;;2.20;81.20;;;;;;5011150;28;20776;-83
2021/11/29 00:30:13;;;;;;;18.23;16.63;;;2.20;84.60;;;;;;5010879;28;20507;-83
2021/11/29 00:32:39;;;;;;;18.63;16.77;;;2.20;85.40;;;;;;5011079;28;20422;-83
2021/11/29 00:38:14;;;;;;;18.50;16.70;;;2.30;85.00;;;;;;5012104;28;20243;-83
2021/11/29 00:40:41;;;;;;;19.52;17.52;;;2.20;84.00;;;;;;5010461;28;20456;-83
2021/11/29 00:43:07;;;;;;;19.98;18.00;;;2.20;82.00;;;;;;5010246;28;20281;-83
2021/11/29 00:45:33;;;;;;;20.97;18.87;;;2.30;84.30;;;;;;5010240;28;20178;-83
2021/11/29 00:47:59;;;;;;;18.90;17.10;;;2.20;85.30;;;;;;5010070;28;20841;-83
2021/11/29 00:50:25;;;;;;;20.08;18.08;;;2.20;83.30;;;;;;5010970;28;20641;-83
2021/11/29 00:52:50;;;;;;;19.13;17.43;;;2.20;83.90;;;;;;5010789;28;20204;-82
2021/11/29 00:55:17;;;;;;;20.37;18.30;;;2.20;82.60;;;;;;5011057;28;20424;-83
2021/11/29 00:57:43;;;;;;;21.92;19.55;;;2.20;82.80;;;;;;5009846;28;20605;-82
2021/11/29 01:00:14;;;;;;;23.30;20.92;;;2.20;83.80;;;;;;5010379;28;20600;-83
2021/11/29 01:02:39;;;;;;;23.17;20.85;;;2.20;83.30;;;;;;5010582;28;20199;-83
2021/11/29 01:05:05;;;;;;;20.97;18.90;;;2.20;81.90;;;;;;5010191;28;20170;-83
2021/11/29 01:07:31;;;;;;;20.60;18.50;;;2.20;83.90;;;;;;5009589;28;20180;-83
2021/11/29 01:09:57;;;;;;;20.93;18.80;;;2.20;83.80;;;;;;5010585;28;20174;-83
2021/11/29 01:12:23;;;;;;;20.27;18.10;;;2.20;83.30;;;;;;5009824;28;20505;-82
2021/11/29 01:14:48;;;;;;;21.60;19.40;;;2.20;82.80;;;;;;5009940;28;20177;-83
2021/11/29 01:17:14;;;;;;;22.73;20.33;;;2.20;83.90;;;;;;5011910;28;20177;-83
2021/11/29 01:19:40;;;;;;;21.70;19.50;;;2.20;84.60;;;;;;5011282;28;20200;-82
2021/11/29 01:22:06;;;;;;;21.00;18.90;;;2.20;84.30;;;;;;5011497;28;20205;-82
2021/11/29 01:24:32;;;;;;;20.20;18.20;;;2.20;82.60;;;;;;5009642;28;20413;-83
2021/11/29 01:26:58;;;;;;;22.27;20.07;;;2.20;82.40;;;;;;5009371;28;20832;-82
2021/11/29 01:29:23;;;;;;;23.17;20.97;;;2.20;83.50;;;;;;5009733;28;20173;-83
2021/11/29 01:31:50;;;;;;;22.63;20.33;;;2.20;84.60;;;;;;5009050;28;20471;-83
2021/11/29 01:34:16;;;;;;;23.67;21.30;;;2.20;83.90;;;;;;5009454;28;20240;-80
2021/11/29 01:36:42;;;;;;;21.90;19.57;;;2.20;84.60;;;;;;5008785;28;20428;-84
2021/11/29 01:39:09;;;;;;;24.20;21.80;;;2.20;83.00;;;;;;5009205;28;20413;-83
2021/11/29 01:41:35;;;;;;;23.30;20.97;;;2.30;83.50;;;;;;5008836;28;20456;-83
2021/11/29 01:44:01;;;;;;;21.03;18.93;;;2.30;84.30;;;;;;5009306;28;20412;-83
2021/11/29 01:46:27;;;;;;;23.10;20.80;;;2.30;83.30;;;;;;5010359;28;20507;-82
2021/11/29 01:48:52;;;;;;;22.00;19.90;;;2.20;82.90;;;;;;5009171;28;20412;-83
2021/11/29 01:51:18;;;;;;;24.17;21.20;;;2.20;83.60;;;;;;5009415;28;20174;-82
2021/11/29 01:53:44;;;;;;;24.40;22.00;;;2.20;83.20;;;;;;5008834;28;20192;-83
2021/11/29 01:56:10;;;;;;;20.17;18.27;;;2.20;83.80;;;;;;5009228;28;20274;-82
2021/11/29 01:58:37;;;;;;;20.80;18.60;;;2.20;80.30;;;;;;5009299;28;20470;-83
2021/11/29 02:01:08;;;;;;;22.60;20.40;;;2.20;82.40;;;;;;5008117;28;20300;-83
2021/11/29 02:03:34;;;;;;;21.97;19.70;;;2.20;83.50;;;;;;5008897;28;20435;-83
2021/11/29 02:06:01;;;;;;;22.77;20.47;;;2.20;82.40;;;;;;5008381;28;20984;-82
2021/11/29 02:08:26;;;;;;;22.20;20.00;;;2.30;83.20;;;;;;5009164;28;20754;-83
2021/11/29 02:10:52;;;;;;;23.73;21.27;;;2.30;82.90;;;;;;5008762;28;20415;-83
2021/11/29 02:13:19;;;;;;;23.98;21.48;;;2.30;82.00;;;;;;5008554;28;20658;-83
2021/11/29 02:15:50;;;;;;;24.83;22.23;;;2.30;81.70;;;;;;5008114;28;20235;-83
2021/11/29 02:18:21;;;;;;;24.33;21.88;;;2.30;82.00;;;;;;5008665;28;20427;-83
2021/11/29 02:21:01;;;;;;;25.30;22.70;;;2.20;81.10;;;;;;5007792;28;20205;-84
2021/11/29 02:23:27;;;;;;;27.23;23.98;;;2.30;81.70;;;;;;5008424;28;20180;-83
2021/11/29 02:25:53;;;;;;;25.17;22.43;;;2.30;82.30;;;;;;5008493;28;20538;-83
2021/11/29 02:28:20;;;;;;;26.30;23.60;;;2.30;81.80;;;;;;5008176;28;20177;-82
2021/11/29 02:30:46;;;;;;;26.67;23.97;;;2.20;82.10;;;;;;5007811;28;20184;-83
2021/11/29 02:33:12;;;;;;;27.23;24.27;;;2.20;82.60;;;;;;5008394;28;20943;-83
2021/11/29 02:35:37;;;;;;;25.83;23.23;;;2.20;81.90;;;;;;5008977;28;20180;-82
2021/11/29 02:38:05;;;;;;;26.90;24.00;;;2.20;81.40;;;;;;5009476;28;20422;-83
2021/11/29 02:40:34;;;;;;;27.00;23.98;;;2.20;81.60;;;;;;5008290;28;20233;-83
2021/11/29 02:43:00;;;;;;;27.42;24.65;;;2.20;80.80;;;;;;5009188;28;20173;-83
2021/11/29 02:45:27;;;;;;;28.13;25.23;;;2.30;82.10;;;;;;5008517;28;20176;-83
2021/11/29 02:47:53;;;;;;;27.40;24.70;;;2.20;79.80;;;;;;5007853;28;20420;-83
2021/11/29 02:50:19;;;;;;;28.47;25.47;;;2.20;79.90;;;;;;5008516;28;20196;-83
2021/11/29 02:52:44;;;;;;;29.53;26.43;;;2.20;81.20;;;;;;5007507;28;20263;-83
2021/11/29 02:55:11;;;;;;;27.87;24.90;;;2.20;80.50;;;;;;5008090;28;20177;-83
2021/11/29 02:57:36;;;;;;;27.80;24.92;;;2.20;80.40;;;;;;5006919;28;20184;-83
2021/11/29 03:00:05;;;;;;;28.97;25.97;;;2.20;79.80;;;;;;5008110;28;20546;-83
2021/11/29 03:02:32;;;;;;;28.50;25.33;;;2.20;81.50;;;;;;5008302;28;20189;-83
2021/11/29 03:04:58;;;;;;;28.60;25.70;;;2.30;83.50;;;;;;5007555;28;20455;-83
2021/11/29 03:07:24;;;;;;;26.03;23.43;;;2.20;81.60;;;;;;5007408;28;20412;-83
2021/11/29 03:09:50;;;;;;;27.15;24.48;;;2.20;81.80;;;;;;5010077;28;20430;-83
2021/11/29 03:12:17;;;;;;;27.10;24.47;;;2.20;81.20;;;;;;5011342;28;20460;-83
2021/11/29 03:14:43;;;;;;;26.85;23.85;;;2.20;82.20;;;;;;5011427;28;20424;-83
2021/11/29 03:17:09;;;;;;;25.75;23.35;;;2.20;81.20;;;;;;5011140;28;20173;-83
2021/11/29 03:19:38;;;;;;;26.90;24.25;;;2.20;79.80;;;;;;5011064;28;20653;-83
2021/11/29 03:22:11;;;;;;;27.85;22.95;;;2.20;79.90;;;;;;5011329;28;20296;-82
2021/11/29 03:24:38;;;;;;;26.40;23.90;;;2.20;80.30;;;;;;5011545;28;20665;-82
2021/11/29 03:27:04;;;;;;;25.05;22.55;;;2.20;80.00;;;;;;5011690;28;20188;-83
2021/11/29 03:29:30;;;;;;;26.47;23.77;;;2.10;79.00;;;;;;5011564;28;20176;-83
2021/11/29 03:32:02;;;;;;;25.40;22.80;;;2.10;80.00;;;;;;5011244;28;20424;-84
2021/11/29 03:34:29;;;;;;;28.15;25.35;;;2.10;80.10;;;;;;5011146;28;20173;-83
2021/11/29 03:36:55;;;;;;;27.20;24.45;;;2.10;79.70;;;;;;5011361;28;20535;-83
2021/11/29 03:39:24;;;;;;;23.80;21.30;;;2.10;78.60;;;;;;5012438;28;20186;-83
2021/11/29 03:41:52;;;;;;;26.70;24.17;;;2.10;79.30;;;;;;5010611;28;20459;-83
2021/11/29 03:44:18;;;;;;;26.42;23.73;;;2.10;79.30;;;;;;5011137;28;20473;-83
2021/11/29 03:46:46;;;;;;;26.45;23.83;;;2.10;78.30;;;;;;5011402;28;20652;-84
2021/11/29 03:49:12;;;;;;;26.70;24.00;;;2.10;78.20;;;;;;5010918;28;20208;-84
2021/11/29 03:51:37;;;;;;;27.60;24.80;;;2.20;80.90;;;;;;5010385;28;20208;-83
2021/11/29 03:54:04;;;;;;;28.73;25.83;;;2.10;78.20;;;;;;5010445;28;20727;-84
2021/11/29 03:56:30;;;;;;;27.92;25.02;;;2.20;78.40;;;;;;5011321;28;20630;-84
2021/11/29 03:58:56;;;;;;;28.13;24.85;;;2.20;78.10;;;;;;5010142;28;20243;-84
2021/11/29 04:01:22;;;;;;;25.73;23.13;;;2.20;77.20;;;;;;5011149;28;20209;-84
2021/11/29 04:03:47;;;;;;;25.20;22.70;;;2.20;78.70;;;;;;5010948;28;20443;-83
2021/11/29 04:06:13;;;;;;;26.60;23.90;;;2.10;77.50;;;;;;5010192;28;20415;-84
2021/11/29 04:08:39;;;;;;;25.30;22.60;;;2.10;78.80;;;;;;5010955;28;20782;-83
2021/11/29 04:11:05;;;;;;;26.47;23.67;;;2.10;78.20;;;;;;5011046;28;20286;-84
2021/11/29 04:13:31;;;;;;;25.80;23.20;;;2.20;79.80;;;;;;5011106;28;20265;-83
2021/11/29 04:15:57;;;;;;;25.83;23.13;;;2.20;79.30;;;;;;5011074;28;20435;-84
2021/11/29 04:18:23;;;;;;;26.47;23.80;;;2.20;79.30;;;;;;5010706;28;20265;-84
2021/11/29 04:20:49;;;;;;;27.30;24.70;;;2.20;78.00;;;;;;5010498;28;20456;-84
2021/11/29 04:23:15;;;;;;;23.90;21.40;;;2.20;78.10;;;;;;5011604;28;20420;-83
2021/11/29 04:25:54;;;;;;;26.97;24.27;;;2.20;78.00;;;;;;5010788;28;20213;-83
2021/11/29 04:28:20;;;;;;;23.92;21.52;;;2.20;79.00;;;;;;5010540;28;20408;-82
2021/11/29 04:30:46;;;;;;;27.63;24.33;;;2.10;76.90;;;;;;5010452;28;20181;-83
2021/11/29 04:33:12;;;;;;;26.20;23.37;;;2.20;79.80;;;;;;5010424;28;20177;-83
2021/11/29 04:35:37;;;;;;;24.00;21.37;;;2.20;78.80;;;;;;5010393;28;20905;-82
2021/11/29 04:38:04;;;;;;;25.40;22.77;;;2.20;77.40;;;;;;5010647;28;20424;-83
2021/11/29 04:40:31;;;;;;;28.63;23.70;;;2.20;77.20;;;;;;5010517;28;20536;-83
2021/11/29 04:42:57;;;;;;;27.40;24.40;;;2.20;77.80;;;;;;5010365;28;20642;-83
2021/11/29 04:45:23;;;;;;;28.10;25.10;;;2.20;77.20;;;;;;5011278;28;20423;-83
2021/11/29 04:47:49;;;;;;;24.75;22.17;;;2.20;77.30;;;;;;5016112;28;20212;-83
2021/11/29 04:50:15;;;;;;;25.10;22.57;;;2.30;78.40;;;;;;5029848;28;20559;-85
2021/11/29 04:52:41;;;;;;;27.67;24.80;;;2.20;77.90;;;;;;5029903;28;20605;-84
2021/11/29 04:55:08;;;;;;;24.20;21.60;;;2.20;77.90;;;;;;5030139;28;20179;-83
2021/11/29 04:57:34;;;;;;;23.65;21.25;;;2.30;78.40;;;;;;5032326;28;20789;-83
2021/11/29 05:00:00;;;;;;;25.80;23.27;;;2.20;77.10;;;;;;5030560;28;20643;-84
2021/11/29 05:02:26;;;;;;;26.25;23.40;;;2.20;78.70;;;;;;5031260;28;20467;-86
2021/11/29 05:04:52;;;;;;;27.90;23.67;;;2.20;79.00;;;;;;5031242;28;20266;-84
2021/11/29 05:07:17;;;;;;;25.53;22.30;;;2.20;79.60;;;;;;5030076;28;20178;-84
2021/11/29 05:09:44;;;;;;;24.30;20.70;;;2.20;78.20;;;;;;5029786;28;20554;-85
2021/11/29 05:12:13;;;;;;;23.20;20.92;;;2.30;79.20;;;;;;5029981;28;20188;-84
2021/11/29 05:14:39;;;;;;;26.70;23.67;;;2.30;79.90;;;;;;5030520;28;20184;-84
2021/11/29 05:17:05;;;;;;;22.43;20.03;;;2.20;78.30;;;;;;5028669;28;20446;-82
2021/11/29 05:19:30;;;;;;;24.33;21.73;;;2.10;79.50;;;;;;5030385;28;20180;-83
2021/11/29 05:21:56;;;;;;;23.43;21.03;;;2.10;80.10;;;;;;5029991;28;20578;-83
2021/11/29 05:24:22;;;;;;;25.70;22.60;;;2.20;79.70;;;;;;5030607;28;20674;-83
2021/11/29 05:26:48;;;;;;;24.35;21.88;;;2.30;79.70;;;;;;5030435;28;20182;-84
2021/11/29 05:29:15;;;;;;;23.17;20.13;;;2.30;79.20;;;;;;5030331;28;20180;-84
2021/11/29 05:31:42;;;;;;;23.93;21.60;;;2.20;78.80;;;;;;5029721;28;20220;-84
2021/11/29 05:34:07;;;;;;;25.23;22.60;;;2.20;79.10;;;;;;5031258;28;20845;-84
2021/11/29 05:36:33;;;;;;;22.30;20.10;;;2.20;79.00;;;;;;5026675;28;20177;-85
2021/11/29 05:38:59;;;;;;;23.57;21.07;;;2.20;79.80;;;;;;5033199;28;20219;-84
2021/11/29 05:41:25;;;;;;;22.67;20.17;;;2.20;77.80;;;;;;5034592;28;20203;-86
2021/11/29 05:43:53;;;;;;;23.20;20.77;;;2.20;78.50;;;;;;5031548;28;20184;-85
2021/11/29 05:46:22;;;;;;;23.10;20.50;;;2.20;79.80;;;;;;5030200;28;20180;-85
2021/11/29 05:48:48;;;;;;;21.98;19.70;;;2.20;79.80;;;;;;5031265;28;20179;-86
2021/11/29 05:51:14;;;;;;;24.93;22.33;;;2.20;79.80;;;;;;5031358;28;20188;-86
2021/11/29 05:53:40;;;;;;;22.27;20.00;;;2.20;77.80;;;;;;5031193;28;20522;-86
2021/11/29 05:56:06;;;;;;;23.90;20.93;;;2.20;78.70;;;;;;5031411;28;20180;-86
2021/11/29 05:58:32;;;;;;;22.77;20.33;;;2.20;79.10;;;;;;5032279;28;20176;-84
2021/11/29 06:00:58;;;;;;;24.60;21.73;;;2.20;78.70;;;;;;5010687;28;20452;-84
2021/11/29 06:03:24;;;;;;;21.83;19.30;;;2.20;78.60;;;;;;5029512;28;20405;-84
2021/11/29 06:05:51;;;;;;;22.77;18.35;;;2.20;78.60;;;;;;5030615;28;20683;-86
2021/11/29 06:08:16;;;;;;;22.15;19.58;;;2.30;78.10;;;;;;5032028;28;20184;-86
2021/11/29 06:10:42;;;;;;;22.10;19.67;;;2.20;77.70;;;;;;5032111;28;20641;-85
2021/11/29 06:13:08;;;;;;;22.77;20.47;;;2.20;77.50;;;;;;5031700;28;20188;-86
2021/11/29 06:15:34;;;;;;;22.77;18.60;;;2.20;78.60;;;;;;5031629;28;20190;-87
2021/11/29 06:17:59;;;;;;;20.13;18.03;;;2.20;77.20;;;;;;5031294;28;20169;-87
2021/11/29 06:20:25;;;;;;;23.17;20.00;;;2.20;76.30;;;;;;5031479;28;20238;-87
2021/11/29 06:22:53;;;;;;;22.73;16.60;;;2.10;76.20;;;;;;5032756;28;20229;-86
2021/11/29 06:25:21;;;;;;;18.70;16.85;;;2.10;75.80;;;;;;5031231;28;20415;-87
2021/11/29 06:27:48;;;;;;;19.98;17.98;;;2.10;74.90;;;;;;5031642;28;20176;-86
2021/11/29 06:30:14;;;;;;;18.85;16.90;;;2.20;77.20;;;;;;5032573;28;20227;-85
2021/11/29 06:32:40;;;;;;;18.73;16.92;;;2.10;74.90;;;;;;5031357;28;20180;-86
2021/11/29 06:35:07;;;;;;;20.35;18.35;;;2.20;75.80;;;;;;5031209;28;20204;-85
2021/11/29 06:37:33;;;;;;;19.10;17.23;;;2.20;75.10;;;;;;5030535;28;20302;-85
2021/11/29 06:40:00;;;;;;;19.23;17.38;;;2.20;74.60;;;;;;5031554;28;20230;-83
2021/11/29 06:42:26;;;;;;;20.83;18.23;;;2.20;75.50;;;;;;5030536;28;20913;-85
2021/11/29 06:44:52;;;;;;;21.97;18.70;;;2.20;76.80;;;;;;5030926;28;20230;-86
2021/11/29 06:47:18;;;;;;;21.93;19.37;;;2.20;76.00;;;;;;5030674;28;20419;-85
2021/11/29 06:49:43;;;;;;;17.83;16.13;;;2.20;75.60;;;;;;5031137;28;20424;-85
2021/11/29 06:52:09;;;;;;;20.60;18.43;;;2.20;75.50;;;;;;5030532;28;20180;-85
2021/11/29 06:54:37;;;;;;;19.97;16.60;;;2.20;75.90;;;;;;5030539;28;20569;-86
2021/11/29 06:57:07;;;;;;;19.58;17.58;;;2.20;75.00;;;;;;5031387;28;20263;-86
2021/11/29 06:59:34;;;;;;;17.92;16.13;;;2.20;75.00;;;;;;5031070;28;20198;-87
2021/11/29 07:02:03;;;;;;;19.90;16.85;;;2.10;73.80;;;;;;5030202;28;20426;-87
2021/11/29 07:04:29;;;;;;;18.25;16.30;;;2.10;73.40;;;;;;5031127;28;20191;-86
2021/11/29 07:06:58;;;;;;;19.23;15.98;;;2.10;74.40;;;;;;5030860;28;20508;-87
2021/11/29 07:09:23;;;;;;;16.75;15.15;;;2.10;72.70;;;;;;5030066;28;20540;-86
2021/11/29 07:11:49;;;;;;;19.70;16.03;;;2.10;73.20;;;;;;5030093;28;20214;-86
2021/11/29 07:14:15;;;;;;;18.23;16.33;;;2.10;74.50;;;;;;5030562;28;20181;-83
2021/11/29 07:16:48;;;;;;;18.70;14.20;;;2.10;74.90;;;;;;5030424;28;20326;-84
2021/11/29 07:19:17;;;;;;;16.50;14.80;;;2.10;71.60;;;;;;5028238;28;20220;-84
2021/11/29 07:21:44;;;;;;;16.17;14.43;;;2.10;71.90;;;;;;5028535;28;20813;-84
2021/11/29 07:24:11;;;;;;;16.57;13.87;;;2.20;73.00;;;;;;5028379;28;20414;-83
2021/11/29 07:26:38;;;;;;;14.55;12.60;;;2.10;69.80;;;;;;5028659;28;20791;-83
2021/11/29 07:29:04;;;;;;;13.98;12.57;;;2.10;70.80;;;;;;5029454;28;20265;-83
2021/11/29 07:31:30;;;;;;;14.65;13.15;;;2.10;71.00;;;;;;5031337;28;20177;-83
2021/11/29 07:33:56;;;;;;;15.03;13.10;;;2.10;71.30;;;;;;5030964;28;20184;-83
2021/11/29 07:36:21;;;;;;;15.40;13.90;;;2.10;73.50;;;;;;5032608;28;20184;-82
2021/11/29 07:38:47;;;;;;;15.93;13.30;;;2.20;71.60;;;;;;5031572;28;20172;-83
2021/11/29 07:41:12;;;;;;;15.10;13.50;;;2.10;68.90;;;;;;5030170;28;20206;-83
2021/11/29 07:43:39;;;;;;;12.57;11.43;;;2.10;69.10;;;;;;5030765;28;20621;-82
2021/11/29 07:46:05;;;;;;;14.70;11.87;;;2.10;68.50;;;;;;5029901;28;20263;-87
2021/11/29 07:48:31;;;;;;;16.53;12.30;;;2.10;70.10;;;;;;5028803;28;20506;-87
2021/11/29 07:50:57;;;;;;;13.70;11.53;;;2.20;69.40;;;;;;5028754;28;20546;-87
2021/11/29 07:53:22;;;;;;;13.77;12.30;;;2.20;69.00;;;;;;5030011;28;20710;-86
2021/11/29 07:55:48;;;;;;;11.80;10.53;;;2.00;70.10;;;;;;5029962;28;20419;-86
2021/11/29 07:58:16;;;;;;;13.60;12.20;;;2.10;70.70;;;;;;5032663;28;20218;-88
2021/11/29 08:00:43;;;;;;;11.80;10.77;;;2.00;70.80;;;;;;5033034;28;20462;-88
2021/11/29 08:03:09;;;;;;;12.27;11.07;;;2.00;68.80;;;;;;5033738;28;20180;-87
2021/11/29 08:05:36;;;;;;;11.67;10.47;;;2.00;69.30;;;;;;5034185;28;20468;-83
2021/11/29 08:08:02;;;;;;;13.02;11.05;;;2.10;70.40;;;;;;5033634;28;20414;-83
2021/11/29 08:10:29;;;;;;;10.40;9.50;;;2.00;69.10;;;;;;5033656;28;20184;-81
2021/11/29 08:12:55;;;;;;;11.65;10.45;;;2.00;68.60;;;;;;5034099;28;20420;-81
2021/11/29 08:15:21;;;;;;;12.07;10.80;;;2.00;69.70;;;;;;5033832;28;20521;-82
2021/11/29 08:17:47;;;;;;;24.65;14.35;;;2.00;68.60;;;;;;5034533;28;20202;-82
2021/11/29 08:20:13;;;;;;;12.27;10.90;;;2.00;70.30;;;;;;5034341;28;20708;-82
2021/11/29 08:22:39;;;;;;;16.10;10.40;;;2.10;70.50;;;;;;5034462;28;20195;-85
2021/11/29 08:25:06;;;;;;;10.90;9.90;;;2.10;69.00;;;;;;5034260;28;20425;-86
2021/11/29 08:27:33;;;;;;;15.85;10.90;;;2.10;70.00;;;;;;5035569;28;20200;-84
2021/11/29 08:30:00;;;;;;;11.05;9.20;;;2.80;80.40;;;;;;5033766;28;20622;-84
2021/11/29 08:32:26;;;;;;;11.40;10.20;;;2.60;70.50;;;;;;5034046;28;20207;-84
2021/11/29 08:34:52;;;;;;;12.20;10.83;;;2.50;67.80;;;;;;5034154;28;20423;-87
2021/11/29 08:37:18;;;;;;;12.83;9.03;;;2.40;67.50;;;;;;5034131;28;20271;-87
2021/11/29 08:39:43;;;;;;;11.10;9.97;;;2.40;68.70;;;;;;5033529;28;20641;-86
2021/11/29 08:42:09;;;;;;;10.90;9.90;;;2.40;68.20;;;;;;5033218;28;20211;-82
2021/11/29 08:44:35;;;;;;;9.77;8.67;;;2.40;69.00;;;;;;5033746;28;20173;-82
2021/11/29 08:47:02;;;;;;;14.03;9.70;;;2.40;65.30;;;;;;5033335;28;20259;-82
2021/11/29 08:49:27;;;;;;;11.10;9.70;;;2.40;68.20;;;;;;5032948;28;20173;-83
2021/11/29 08:51:55;;;;;;;10.23;9.23;;;2.40;66.80;;;;;;5032516;28;20415;-85
2021/11/29 08:54:21;;;;;;;21.53;14.27;;;2.40;66.10;;;;;;5033101;28;20192;-85
2021/11/29 08:56:47;;;;;;;10.65;9.50;;;2.30;65.80;;;;;;5033165;28;20419;-86
2021/11/29 08:59:14;;;;;;;10.00;8.87;;;2.30;66.50;;;;;;5032805;28;20180;-87
2021/11/29 09:01:40;;;;;;;18.30;10.10;;;2.30;65.60;;;;;;5033117;28;20966;-86
2021/11/29 09:04:06;;;;;;;9.47;8.57;;;2.20;64.80;;;;;;5034348;28;20446;-89
2021/11/29 09:06:31;;;;;;;9.50;8.70;;;2.30;66.30;;;;;;5032401;28;20224;-86
2021/11/29 09:08:57;;;;;;;9.43;7.70;;;2.20;65.80;;;;;;5032654;28;20174;-86
2021/11/29 09:11:23;;;;;;;9.37;7.93;;;2.20;64.70;;;;;;5033142;28;20173;-85
2021/11/29 09:13:49;;;;;;;7.70;6.83;;;2.30;64.50;;;;;;5033144;28;20286;-86
2021/11/29 09:16:16;;;;;;;9.23;7.67;;;2.30;65.60;;;;;;5033620;28;20181;-86
2021/11/29 09:18:43;;;;;;;9.52;8.25;;;2.30;63.90;;;;;;5032756;28;20510;-86
2021/11/29 09:21:11;;;;;;;8.20;7.40;;;2.30;64.70;;;;;;5032801;28;20219;-85
2021/11/29 09:23:38;;;;;;;8.80;8.00;;;2.40;63.70;;;;;;5032833;28;20420;-86
2021/11/29 09:26:04;;;;;;;10.23;7.90;;;2.40;64.00;;;;;;5032815;28;20247;-86
2021/11/29 09:28:30;;;;;;;9.45;7.90;;;2.50;65.00;;;;;;5033021;28;20175;-85
2021/11/29 09:30:56;;;;;;;8.57;7.63;;;2.60;64.80;;;;;;5032384;28;20176;-85
2021/11/29 09:33:22;;;;;;;11.60;7.90;;;2.60;62.00;;;;;;5032029;28;20789;-85
2021/11/29 09:35:49;;;;;;;9.20;8.40;;;2.50;64.30;;;;;;5032641;28;20431;-85
2021/11/29 09:38:14;;;;;;;12.93;8.03;;;2.60;62.40;;;;;;5031961;28;20904;-85
2021/11/29 09:40:41;;;;;;;8.77;7.53;;;2.70;65.00;;;;;;5032199;28;20466;-85
2021/11/29 09:43:11;;;;;;;9.60;7.77;;;2.70;62.50;;;;;;5033354;28;20206;-85
2021/11/29 09:45:39;;;;;;;8.10;7.30;;;2.70;62.10;;;;;;5032176;28;20411;-85
2021/11/29 09:48:09;;;;;;;7.88;6.40;;;2.80;61.20;;;;;;5032166;28;20509;-86
2021/11/29 09:50:38;;;;;;;8.50;6.50;;;2.80;62.10;;;;;;5032000;28;20208;-86
2021/11/29 09:53:04;;;;;;;5.80;5.30;;;2.80;60.90;;;;;;5031860;28;20537;-85
2021/11/29 09:55:29;;;;;;;6.23;5.70;;;2.80;61.80;;;;;;5031846;28;20502;-85
2021/11/29 09:57:57;;;;;;;10.77;6.03;;;2.70;59.90;;;;;;5031803;28;20401;-85
2021/11/29 10:00:31;;;;;;;8.97;5.90;;;2.70;59.10;;;;;;5031549;28;22120;-84
2021/11/29 10:02:57;;;;;;;7.23;5.63;;;2.80;65.10;;;;;;5031939;28;20418;-84
2021/11/29 10:05:25;;;;;;;8.90;5.50;;;2.70;59.00;;;;;;5031703;28;20425;-85
2021/11/29 10:07:52;;;;;;;6.03;5.53;;;2.80;59.60;;;;;;5031724;28;20187;-85
2021/11/29 10:10:23;;;;;;;7.38;5.60;;;2.80;59.00;;;;;;5031603;28;20827;-85
2021/11/29 10:12:53;;;;;;;6.77;5.67;;;2.80;60.60;;;;;;5031853;28;20183;-85
2021/11/29 10:15:27;;;;;;;8.07;5.50;;;2.80;60.00;;;;;;5032148;28;20782;-86
2021/11/29 10:18:27;;;;;;;5.93;5.22;;;2.90;61.20;;;;;;5031973;28;20509;-87
2021/11/29 10:21:07;;;;;;;6.87;5.70;;;2.90;60.70;;;;;;5025391;28;20208;-84
2021/11/29 10:23:49;;;;;;;7.77;5.70;;;2.90;65.10;;;;;;5043665;28;20421;-85
2021/11/29 10:26:28;;;;;;;6.73;5.27;;;3.00;61.90;;;;;;5038198;28;20505;-85
2021/11/29 10:29:04;;;;;;;6.27;5.20;;;3.00;60.00;;;;;;5032588;28;20443;-86
2021/11/29 10:31:49;;;;;;;5.80;4.50;;;3.10;60.90;;;;;;5032392;28;20426;-86
2021/11/29 10:34:16;;;;;;;7.30;4.87;;;3.10;58.80;;;;;;5031722;28;20415;-84
2021/11/29 10:36:45;;;;;;;5.93;5.00;;;3.10;59.40;;;;;;5031674;28;20419;-84
2021/11/29 10:39:11;;;;;;;12.33;5.20;;;3.10;59.10;;;;;;5031348;28;20446;-84
2021/11/29 10:41:40;;;;;;;8.03;4.83;;;3.10;59.80;;;;;;5031304;28;21133;-84
2021/11/29 10:44:12;;;;;;;7.23;5.37;;;3.10;59.30;;;;;;5031981;28;20220;-83
2021/11/29 10:46:41;;;;;;;7.17;5.53;;;3.10;58.80;;;;;;5031416;28;20455;-84
2021/11/29 10:49:11;;;;;;;7.57;5.47;;;3.10;57.80;;;;;;5031071;28;20457;-83
2021/11/29 10:51:38;;;;;;;5.57;4.93;;;3.10;58.80;;;;;;5031414;28;20788;-83
2021/11/29 10:54:13;;;;;;;9.73;6.57;;;3.00;56.50;;;;;;5031139;28;20445;-83
2021/11/29 10:56:40;;;;;;;5.70;4.87;;;3.10;58.90;;;;;;5031525;28;20477;-84
2021/11/29 10:59:09;;;;;;;6.07;4.90;;;3.20;60.20;;;;;;5031398;28;20443;-83
2021/11/29 11:01:41;;;;;;;9.17;5.83;;;3.10;56.80;;;;;;5030897;28;20467;-83
2021/11/29 11:04:12;;;;;;;6.23;5.63;;;3.10;59.70;;;;;;5031382;28;20458;-83
2021/11/29 11:06:44;;;;;;;6.20;5.70;;;3.20;59.00;;;;;;5031449;28;20840;-83
2021/11/29 11:09:32;;;;;;;8.48;5.55;;;3.20;58.40;;;;;;5031337;28;20446;-86
2021/11/29 11:12:06;;;;;;;7.63;6.77;;;3.30;59.20;;;;;;5031174;28;20169;-85
2021/11/29 11:14:35;;;;;;;8.63;6.23;;;3.30;59.10;;;;;;5031722;28;20468;-85
2021/11/29 11:17:04;;;;;;;7.77;6.83;;;3.30;60.30;;;;;;5030820;28;20450;-85
2021/11/29 11:19:38;;;;;;;8.23;5.77;;;3.30;58.50;;;;;;5030656;28;20987;-85
2021/11/29 11:22:09;;;;;;;6.63;6.07;;;3.20;58.20;;;;;;5030909;28;20520;-85
2021/11/29 11:24:51;;;;;;;6.30;5.70;;;3.20;57.60;;;;;;5031185;28;20412;-86
2021/11/29 11:27:18;;;;;;;6.40;5.80;;;3.10;57.80;;;;;;5026476;28;20428;-85
2021/11/29 11:29:55;;;;;;;6.50;5.90;;;3.10;59.10;;;;;;5011817;28;20469;-84
2021/11/29 11:32:24;;;;;;;9.00;6.73;;;3.20;59.40;;;;;;5014827;28;20478;-86
2021/11/29 11:34:52;;;;;;;6.80;5.90;;;3.10;57.70;;;;;;5014936;28;20424;-87
2021/11/29 11:37:21;;;;;;;8.93;5.93;;;3.10;58.20;;;;;;5015003;28;20180;-85
2021/11/29 11:39:48;;;;;;;8.23;5.73;;;3.10;58.80;;;;;;5014586;28;20423;-85
2021/11/29 11:42:15;;;;;;;6.33;5.83;;;3.20;59.40;;;;;;5014730;28;20471;-82
2021/11/29 11:44:42;;;;;;;6.70;5.80;;;3.20;58.60;;;;;;5014673;28;20417;-83
2021/11/29 11:47:09;;;;;;;6.53;5.90;;;3.20;58.30;;;;;;5035031;28;20429;-82
2021/11/29 11:49:40;;;;;;;6.83;6.13;;;3.20;57.20;;;;;;5053820;28;20898;-81
2021/11/29 11:52:09;;;;;;;7.50;6.07;;;3.20;58.50;;;;;;5054223;28;20423;-82
2021/11/29 11:54:36;;;;;;;6.80;6.20;;;3.20;57.50;;;;;;5054387;28;20519;-82
2021/11/29 11:57:03;;;;;;;5.97;5.47;;;3.20;58.20;;;;;;5054184;28;20422;-82
2021/11/29 11:59:37;;;;;;;6.73;6.03;;;3.20;58.90;;;;;;5054417;28;20414;-81
2021/11/29 12:02:05;;;;;;;7.10;6.37;;;3.10;58.20;;;;;;5054579;28;20457;-82
2021/11/29 12:04:31;;;;;;;6.50;5.60;;;3.20;57.40;;;;;;5054181;28;20424;-82
2021/11/29 12:06:58;;;;;;;6.60;6.10;;;3.30;57.90;;;;;;5053734;28;20218;-83
2021/11/29 12:09:32;;;;;;;7.97;6.27;;;3.30;58.50;;;;;;5053779;28;20788;-83
2021/11/29 12:12:06;;;;;;;7.00;5.97;;;3.30;56.30;;;;;;5054038;28;20479;-83
2021/11/29 12:14:35;;;;;;;5.67;5.10;;;3.30;56.40;;;;;;5053805;28;20449;-83
2021/11/29 12:17:20;;;;;;;11.50;6.23;;;3.30;56.50;;;;;;5053980;28;20833;-82
2021/11/29 12:19:47;;;;;;;6.27;5.77;;;3.40;56.60;;;;;;5053577;28;20414;-82
2021/11/29 12:22:15;;;;;;;6.00;5.40;;;3.40;55.90;;;;;;5054585;28;20461;-83
2021/11/29 12:24:59;;;;;;;6.77;5.03;;;3.40;56.40;;;;;;5054865;28;20410;-83
2021/11/29 12:27:40;;;;;;;6.07;5.07;;;3.40;55.70;;;;;;5053767;28;20955;-84
2021/11/29 12:30:06;;;;;;;6.20;5.60;;;3.40;57.10;;;;;;5053697;28;20501;-84
2021/11/29 12:32:49;;;;;;;6.77;6.17;;;3.40;56.50;;;;;;5053415;28;20430;-84
2021/11/29 12:35:27;;;;;;;5.50;4.87;;;3.40;56.90;;;;;;5053577;28;20422;-82
2021/11/29 12:38:02;;;;;;;6.03;5.50;;;3.40;56.20;;;;;;5053608;28;20427;-83
2021/11/29 12:40:47;;;;;;;7.87;5.73;;;3.40;57.00;;;;;;5053088;28;20776;-84
2021/11/29 12:43:39;;;;;;;7.30;6.57;;;3.40;57.50;;;;;;5052606;28;20425;-83
2021/11/29 12:46:35;;;;;;;6.47;5.83;;;3.30;56.40;;;;;;5053656;28;20480;-83
2021/11/29 12:49:04;;;;;;;9.97;6.60;;;3.30;56.30;;;;;;5026598;28;20425;-84